Tropical Cyclones
[Index]
Main Index Home Page Stock Weather Photos Extreme Storms Discussion Storm News and Storm Chasing Reports Tropical Cyclones / Hurricanes / Typhoons Weather Data and Links Wild Fires / Bushfires Weather Observation Techniques Weather Picture Catalogue Tornado Pictures and Reports Stock Video Footage and DVDs for sale
Season 1985-1986 Tropical Cyclone KRISOSTOMA Track Map
Season 1985-1986 Summaries: [BoM-AU] [JTWC-AU] [JTWC-SIO] [JTWC-SPAC] [JTWC-SH]
<<- Previous TC | JTWC 1985-1986 Season | Next TC ->>

click for intensity scale information  Lat/long Grid: Show Hide

 Date Labels: Show Hide

Joint Typhoon Warning Centre Cyclone Data

Name: KRISOSTOMA

07 Apr 1986 00:00 UTC to 13 Apr 1986 12:00 UTC

    date/time    lat    long     hPa   cat  kts
1986-04-07 00   10.8   102.1                  25          
1986-04-07 06   11.2   101.3                  25          
1986-04-07 12   11.4   100.4                  30          
1986-04-07 18   11.5    99.5                  30          
1986-04-08 00   11.7    98.4                  35          
1986-04-08 06   11.8    97.2                  35          
1986-04-08 12   12.0    96.0            1     40          
1986-04-08 18   12.2    94.8            1     40          
1986-04-09 00   12.5    93.6            1     45          
1986-04-09 06   12.9    92.2            1     45          
1986-04-09 12   13.3    90.8            1     50          
1986-04-09 18   13.7    89.6            2     55          
1986-04-10 00   14.2    88.6            2     60          
1986-04-10 06   14.8    87.8            2     65          
1986-04-10 12   15.4    87.2            2     70          
1986-04-10 18   16.0    86.8            3     75          
1986-04-11 00   16.7    86.7            3     75          
1986-04-11 06   17.3    86.8            3     75          
1986-04-11 12   17.7    86.9            3     75          
1986-04-11 18   18.0    87.1            2     70          
1986-04-12 00   18.2    87.3            2     65          
1986-04-12 06   18.4    87.4            2     60          
1986-04-12 12   18.6    87.2            1     50          
1986-04-12 18   18.8    86.7            1     45          
1986-04-13 00   19.0    85.8                  35          
1986-04-13 06   19.3    84.7                  30          
1986-04-13 12   19.8    83.4                  25          
Winds are 1-min average.

Tropical cyclone tracks developed by Michael Bath using data from the Joint Typhoon Warning Centre Best Tracks and Google Maps.


[Australian Severe Weather index] [Copyright Notice] [Email Contacts] [Search This Site] [Privacy Policy]
Document: tropical_cyclone_krisostoma.htm Updated: 18 September 2016